Time;durP1;ratioP1;P1;durP2;ratioP2;P2;SDS_P1;SDS_P2;PMS_P1;PMS_P2;Temp;Humidity;BMP_temperature;BMP_pressure;BME280_temperature;BME280_humidity;BME280_pressure;Samples;Min_cycle;Max_cycle;Signal;HPM_P1;HPM_P2
2022/01/27 00:01:32;;;;;;;10.48;6.55;;;6.50;99.90;;;;;;4943201;28;20043;-79
2022/01/27 00:04:14;;;;;;;11.52;7.07;;;6.40;99.90;;;;;;4959682;28;20047;-79
2022/01/27 00:06:41;;;;;;;13.60;9.07;;;6.40;99.90;;;;;;4927753;28;20125;-79
2022/01/27 00:09:16;;;;;;;21.38;8.07;;;6.40;99.90;;;;;;4961735;28;20050;-79
2022/01/27 00:11:45;;;;;;;10.13;7.57;;;6.40;99.90;;;;;;4961620;28;20039;-79
2022/01/27 00:14:12;;;;;;;14.57;8.40;;;6.40;99.90;;;;;;4942782;28;20054;-79
2022/01/27 00:16:41;;;;;;;8.70;7.53;;;6.40;99.90;;;;;;4959895;28;20043;-79
2022/01/27 00:19:08;;;;;;;12.13;7.30;;;6.40;99.90;;;;;;4960433;28;20051;-79
2022/01/27 00:21:34;;;;;;;8.70;7.85;;;6.40;99.90;;;;;;4961624;28;20089;-79
2022/01/27 00:24:02;;;;;;;19.30;7.05;;;6.40;99.90;;;;;;4960833;28;20937;-79
2022/01/27 00:26:27;;;;;;;7.78;7.07;;;6.40;99.90;;;;;;4944411;28;20105;-79
2022/01/27 00:28:53;;;;;;;13.38;7.13;;;6.40;99.90;;;;;;4943047;28;20047;-79
2022/01/27 00:31:20;;;;;;;11.07;6.35;;;6.40;99.90;;;;;;4941548;28;20047;-79
2022/01/27 00:33:47;;;;;;;18.65;6.47;;;6.40;99.90;;;;;;4942358;28;20050;-80
2022/01/27 00:36:13;;;;;;;21.73;8.68;;;6.30;99.90;;;;;;4960822;28;20127;-79
2022/01/27 00:38:39;;;;;;;6.30;5.70;;;6.30;99.90;;;;;;4946541;28;21164;-79
2022/01/27 00:41:05;;;;;;;14.85;7.30;;;6.30;99.90;;;;;;4946370;28;20540;-79
2022/01/27 00:43:30;;;;;;;6.75;6.07;;;6.30;99.90;;;;;;4946520;28;20050;-79
2022/01/27 00:45:56;;;;;;;8.55;5.20;;;6.30;99.90;;;;;;4963504;28;20217;-79
2022/01/27 00:48:22;;;;;;;12.32;7.20;;;6.30;99.90;;;;;;4946095;28;20127;-79
2022/01/27 00:50:53;;;;;;;6.43;5.85;;;6.30;99.90;;;;;;4963247;28;20046;-79
2022/01/27 00:53:42;;;;;;;14.50;6.53;;;6.30;99.90;;;;;;4963726;28;20577;-79
2022/01/27 00:56:22;;;;;;;10.32;6.75;;;6.30;99.90;;;;;;4964065;28;20085;-79
2022/01/27 01:01:20;;;;;;;6.07;5.20;;;6.30;99.90;;;;;;4946084;28;20046;-79
2022/01/27 01:03:48;;;;;;;14.25;7.93;;;6.30;99.90;;;;;;4962273;28;20038;-79
2022/01/27 01:16:08;;;;;;;7.00;6.25;;;6.20;99.90;;;;;;4946000;28;20055;-79
2022/01/27 01:18:51;;;;;;;15.90;7.72;;;6.20;99.90;;;;;;4962264;28;20047;-79
2022/01/27 01:21:36;;;;;;;13.95;7.03;;;6.20;99.90;;;;;;4945902;28;20047;-79
2022/01/27 01:34:32;;;;;;;17.20;8.35;;;6.10;99.90;;;;;;4962199;28;20046;-79
2022/01/27 01:37:01;;;;;;;12.05;7.95;;;6.10;99.90;;;;;;4946071;28;20110;-79
2022/01/27 01:39:30;;;;;;;8.85;7.53;;;6.10;99.90;;;;;;4962297;28;20122;-79
2022/01/27 01:41:57;;;;;;;12.40;6.55;;;6.10;99.90;;;;;;4958327;28;20052;-79
2022/01/27 01:44:24;;;;;;;15.82;7.28;;;6.10;99.90;;;;;;4925954;29;20062;-79
2022/01/27 01:46:50;;;;;;;14.93;8.65;;;6.10;99.90;;;;;;4926522;29;20078;-79
2022/01/27 01:49:15;;;;;;;9.38;8.20;;;6.10;99.90;;;;;;4941297;28;20466;-79
2022/01/27 01:51:43;;;;;;;12.88;7.70;;;6.10;99.90;;;;;;4943886;29;20433;-79
2022/01/27 01:54:11;;;;;;;31.00;8.18;;;6.10;99.90;;;;;;4943455;29;20047;-79
2022/01/27 01:56:38;;;;;;;26.42;8.63;;;6.10;99.90;;;;;;4943179;29;20035;-79
2022/01/27 01:59:08;;;;;;;15.57;8.77;;;6.00;99.90;;;;;;4943131;28;20054;-79
2022/01/27 02:01:35;;;;;;;12.25;7.97;;;6.00;99.90;;;;;;4943316;28;20045;-79
2022/01/27 02:04:05;;;;;;;6.75;5.88;;;6.00;99.90;;;;;;4924582;29;20047;-79
2022/01/27 02:06:37;;;;;;;12.15;10.15;;;6.10;99.90;;;;;;4943722;29;20039;-79
2022/01/27 02:19:43;;;;;;;14.77;8.63;;;6.10;99.90;;;;;;4945465;28;20092;-79
2022/01/27 02:22:09;;;;;;;13.07;8.05;;;6.10;99.90;;;;;;4963666;28;20034;-79
2022/01/27 02:24:36;;;;;;;15.85;9.10;;;6.10;99.90;;;;;;4945455;28;20655;-79
2022/01/27 02:27:03;;;;;;;20.80;7.65;;;6.10;99.90;;;;;;4946266;28;20151;-79
2022/01/27 02:29:28;;;;;;;18.42;9.35;;;6.20;99.90;;;;;;4962983;28;20049;-79
2022/01/27 02:31:56;;;;;;;18.10;9.98;;;6.20;99.90;;;;;;4963397;28;20039;-79
2022/01/27 02:34:22;;;;;;;9.23;8.25;;;6.20;99.90;;;;;;4962289;28;20042;-79
2022/01/27 02:36:48;;;;;;;7.88;7.22;;;6.20;99.90;;;;;;4945559;28;20303;-79
2022/01/27 02:39:15;;;;;;;14.07;7.78;;;6.20;99.90;;;;;;4946192;28;20054;-79
2022/01/27 02:42:01;;;;;;;8.43;6.78;;;6.20;99.90;;;;;;4946212;28;20074;-79
2022/01/27 02:44:55;;;;;;;22.85;10.23;;;6.20;99.90;;;;;;4961731;28;20081;-79
2022/01/27 02:47:23;;;;;;;13.82;10.93;;;6.20;99.90;;;;;;4945666;28;20050;-79
2022/01/27 02:49:49;;;;;;;16.63;9.52;;;6.20;99.90;;;;;;4944737;28;20047;-79
2022/01/27 02:52:16;;;;;;;14.48;9.52;;;6.30;99.90;;;;;;4963181;28;20093;-80
2022/01/27 02:54:41;;;;;;;16.65;6.85;;;6.30;99.90;;;;;;4963207;28;20043;-79
2022/01/27 02:57:07;;;;;;;13.10;9.98;;;6.30;99.90;;;;;;4945039;28;20081;-79
2022/01/27 02:59:33;;;;;;;12.57;8.73;;;6.30;99.90;;;;;;4962213;28;20042;-79
2022/01/27 03:01:59;;;;;;;17.98;7.97;;;6.30;99.90;;;;;;4962756;28;20053;-79
2022/01/27 03:04:25;;;;;;;10.00;8.95;;;6.30;99.90;;;;;;4961388;28;20047;-79
2022/01/27 03:06:52;;;;;;;11.45;8.32;;;6.30;99.90;;;;;;4962829;28;20082;-79
2022/01/27 03:09:18;;;;;;;12.38;5.82;;;6.30;99.90;;;;;;4962234;28;20474;-79
2022/01/27 03:11:50;;;;;;;10.95;6.43;;;6.30;99.90;;;;;;4945499;28;20051;-79
2022/01/27 03:14:21;;;;;;;18.20;6.40;;;6.40;99.90;;;;;;4945100;28;20051;-80
2022/01/27 03:16:47;;;;;;;11.02;7.93;;;6.30;99.90;;;;;;4961811;28;20057;-80
2022/01/27 03:19:13;;;;;;;16.58;8.18;;;6.40;99.90;;;;;;4962271;28;20100;-79
2022/01/27 03:21:39;;;;;;;9.85;5.65;;;6.40;99.90;;;;;;4962380;28;20502;-79
2022/01/27 03:24:05;;;;;;;7.68;5.65;;;6.40;99.90;;;;;;4962018;28;20132;-79
2022/01/27 03:26:31;;;;;;;28.05;8.27;;;6.40;99.90;;;;;;4961926;28;20069;-79
2022/01/27 03:28:58;;;;;;;10.80;6.35;;;6.40;99.90;;;;;;4962316;28;20487;-79
2022/01/27 03:31:24;;;;;;;20.58;8.30;;;6.40;99.90;;;;;;4961642;28;20377;-79
2022/01/27 03:33:49;;;;;;;10.68;8.63;;;6.40;99.90;;;;;;4944676;28;20050;-79
2022/01/27 03:36:15;;;;;;;21.83;8.13;;;6.50;99.90;;;;;;4962009;28;20051;-79
2022/01/27 03:38:41;;;;;;;10.20;6.10;;;6.50;99.90;;;;;;4962898;28;20516;-79
2022/01/27 03:41:09;;;;;;;8.90;7.25;;;6.40;99.90;;;;;;4961533;28;20039;-79
2022/01/27 03:43:37;;;;;;;12.60;6.10;;;6.50;99.90;;;;;;4962069;28;20625;-79
2022/01/27 03:46:04;;;;;;;21.45;6.45;;;6.50;99.90;;;;;;4944443;28;20051;-79
2022/01/27 03:48:30;;;;;;;9.88;5.45;;;6.50;99.90;;;;;;4943998;28;20058;-79
2022/01/27 03:50:55;;;;;;;8.43;6.82;;;6.50;99.90;;;;;;4961477;28;20039;-79
2022/01/27 03:53:21;;;;;;;8.75;6.28;;;6.50;99.90;;;;;;4962054;28;20117;-79
2022/01/27 03:55:47;;;;;;;21.77;5.47;;;6.50;99.90;;;;;;4961473;28;20516;-79
2022/01/27 03:58:13;;;;;;;16.15;5.18;;;6.50;99.90;;;;;;4962178;28;20043;-79
2022/01/27 04:00:39;;;;;;;10.82;6.82;;;6.50;99.90;;;;;;4944459;28;20043;-79
2022/01/27 04:03:08;;;;;;;7.47;5.00;;;6.50;99.90;;;;;;4960952;28;20121;-79
2022/01/27 04:05:37;;;;;;;9.55;4.75;;;6.60;99.90;;;;;;4944638;28;20113;-79
2022/01/27 04:08:05;;;;;;;9.75;6.28;;;6.60;99.90;;;;;;4961220;28;20090;-79
2022/01/27 04:10:31;;;;;;;28.60;7.60;;;6.60;99.90;;;;;;4961817;28;20137;-79
2022/01/27 04:12:56;;;;;;;11.88;7.35;;;6.60;99.90;;;;;;4947161;28;20043;-79
2022/01/27 04:15:22;;;;;;;6.82;5.65;;;6.60;99.90;;;;;;4966173;28;20816;-79
2022/01/27 04:17:48;;;;;;;8.25;7.50;;;6.60;99.90;;;;;;4964377;28;20413;-79
2022/01/27 04:20:14;;;;;;;5.63;4.72;;;6.60;99.90;;;;;;4966627;28;20497;-79
2022/01/27 04:22:39;;;;;;;12.70;5.88;;;6.60;99.90;;;;;;4965596;28;20045;-79
2022/01/27 04:25:06;;;;;;;11.82;8.05;;;6.60;99.90;;;;;;4965883;28;20086;-79
2022/01/27 04:27:34;;;;;;;13.82;6.45;;;6.70;99.90;;;;;;4947929;28;20181;-79
2022/01/27 04:30:02;;;;;;;8.95;5.85;;;6.70;99.90;;;;;;4947658;28;20085;-79
2022/01/27 04:32:34;;;;;;;24.20;5.72;;;6.60;99.90;;;;;;4965654;28;20039;-79
2022/01/27 04:35:03;;;;;;;12.20;5.88;;;6.70;99.90;;;;;;4947652;28;20054;-79
2022/01/27 04:37:32;;;;;;;6.95;5.50;;;6.70;99.90;;;;;;4948983;28;20049;-79
2022/01/27 04:40:07;;;;;;;7.88;5.20;;;6.70;99.90;;;;;;4965017;28;20050;-79
2022/01/27 04:43:02;;;;;;;17.00;5.85;;;6.70;99.90;;;;;;4947698;28;20053;-79
2022/01/27 04:45:22;;;;;;;10.35;5.53;;;6.70;99.90;;;;;;4964197;28;20054;-79
2022/01/27 04:47:52;;;;;;;16.13;6.22;;;6.70;99.90;;;;;;4964452;28;20449;-80
2022/01/27 04:50:18;;;;;;;6.50;5.57;;;6.70;99.90;;;;;;4964927;28;20528;-80
2022/01/27 04:52:46;;;;;;;10.20;6.82;;;6.70;99.90;;;;;;4965454;28;20043;-79
2022/01/27 04:55:14;;;;;;;15.68;5.55;;;6.70;99.90;;;;;;4948405;28;20052;-79
2022/01/27 04:57:43;;;;;;;11.07;4.57;;;6.70;99.90;;;;;;4947721;28;20051;-80
2022/01/27 05:00:11;;;;;;;16.65;6.32;;;6.80;99.90;;;;;;4964927;28;20556;-79
2022/01/27 05:02:54;;;;;;;5.60;4.10;;;6.70;99.90;;;;;;4964079;28;20038;-79
2022/01/27 05:05:21;;;;;;;14.90;4.82;;;6.80;99.90;;;;;;4947905;28;20153;-79
2022/01/27 05:07:54;;;;;;;10.90;5.53;;;6.70;99.90;;;;;;4946888;28;20042;-79
2022/01/27 05:10:23;;;;;;;10.85;6.30;;;6.70;99.90;;;;;;4947387;28;20069;-79
2022/01/27 05:12:52;;;;;;;6.00;4.93;;;6.80;99.90;;;;;;4964580;28;20101;-79
2022/01/27 05:15:18;;;;;;;14.38;6.05;;;6.70;99.90;;;;;;4946711;28;20058;-79
2022/01/27 05:17:43;;;;;;;12.73;4.68;;;6.80;99.90;;;;;;4964017;28;20055;-79
2022/01/27 05:20:10;;;;;;;6.25;4.63;;;6.80;99.90;;;;;;4964331;28;20053;-79
2022/01/27 05:22:35;;;;;;;8.25;5.97;;;6.80;99.90;;;;;;4964502;28;20046;-79
2022/01/27 05:25:01;;;;;;;7.13;5.75;;;6.80;99.90;;;;;;4964771;28;20093;-79
2022/01/27 05:27:26;;;;;;;5.80;5.30;;;6.80;99.90;;;;;;4964186;28;20405;-80
2022/01/27 05:29:52;;;;;;;10.52;5.32;;;6.80;99.90;;;;;;4964090;28;20053;-80
2022/01/27 05:32:19;;;;;;;5.10;4.25;;;6.80;99.90;;;;;;4963889;28;20734;-80
2022/01/27 05:34:45;;;;;;;6.35;5.65;;;6.80;99.90;;;;;;4946363;28;20051;-80
2022/01/27 05:37:10;;;;;;;17.80;5.97;;;6.80;99.90;;;;;;4964746;28;20061;-80
2022/01/27 05:39:36;;;;;;;14.57;6.50;;;6.80;99.90;;;;;;4964125;28;20050;-80
2022/01/27 05:42:03;;;;;;;22.63;6.63;;;6.80;99.90;;;;;;4946429;28;20050;-80
2022/01/27 05:44:30;;;;;;;7.88;5.80;;;6.80;99.90;;;;;;4960843;28;20053;-80
2022/01/27 05:46:56;;;;;;;9.60;5.68;;;6.80;99.90;;;;;;4963377;28;20039;-80
2022/01/27 05:49:22;;;;;;;11.25;5.60;;;6.80;99.90;;;;;;4963475;28;20086;-81
2022/01/27 05:51:48;;;;;;;15.95;6.30;;;6.70;99.90;;;;;;4946378;28;20050;-81
2022/01/27 05:54:13;;;;;;;7.47;5.25;;;6.80;99.90;;;;;;4964420;28;20065;-81
2022/01/27 05:56:39;;;;;;;13.60;6.25;;;6.80;99.90;;;;;;4963639;28;20035;-81
2022/01/27 05:59:04;;;;;;;26.98;5.97;;;6.80;99.90;;;;;;4930407;28;20078;-81
2022/01/27 06:01:30;;;;;;;15.40;6.32;;;6.80;99.90;;;;;;4963622;28;20821;-81
2022/01/27 06:03:55;;;;;;;4.97;3.83;;;6.70;99.90;;;;;;4945904;28;20062;-81
2022/01/27 06:06:21;;;;;;;8.70;5.03;;;6.80;99.90;;;;;;4963608;28;20046;-81
2022/01/27 06:08:46;;;;;;;25.55;8.23;;;6.80;99.90;;;;;;4963337;28;20059;-91
2022/01/27 06:11:14;;;;;;;10.30;5.82;;;6.70;99.90;;;;;;4935954;28;20964;-89
2022/01/27 06:13:40;;;;;;;20.02;7.00;;;6.80;99.90;;;;;;4928608;28;20054;-86
2022/01/27 06:16:10;;;;;;;10.65;7.15;;;6.80;99.90;;;;;;4946583;28;20425;-86
2022/01/27 06:18:39;;;;;;;20.95;6.72;;;6.80;99.90;;;;;;4963570;28;20046;-85
2022/01/27 06:21:07;;;;;;;11.73;5.20;;;6.80;99.90;;;;;;4962926;28;20489;-85
2022/01/27 06:23:32;;;;;;;11.85;7.90;;;6.80;99.90;;;;;;4947379;28;20062;-85
2022/01/27 06:25:59;;;;;;;9.90;5.90;;;6.80;99.90;;;;;;4945778;28;20092;-85
2022/01/27 06:28:25;;;;;;;14.30;3.83;;;6.80;99.90;;;;;;4964171;28;20131;-86
2022/01/27 06:30:51;;;;;;;5.43;4.55;;;6.80;99.90;;;;;;4962422;28;20761;-86
2022/01/27 06:33:16;;;;;;;9.23;2.97;;;6.80;99.90;;;;;;4946097;28;20089;-87
2022/01/27 06:35:42;;;;;;;5.35;4.53;;;6.80;99.90;;;;;;4947371;28;20474;-85
2022/01/27 06:38:08;;;;;;;12.35;5.28;;;6.80;99.90;;;;;;4964517;28;20074;-88
2022/01/27 06:40:34;;;;;;;6.30;4.40;;;6.80;99.90;;;;;;4947064;28;20051;-86
2022/01/27 06:42:59;;;;;;;7.03;4.57;;;6.80;99.90;;;;;;4961066;28;20104;-86
2022/01/27 06:45:25;;;;;;;5.70;5.18;;;6.80;99.90;;;;;;4963097;28;20485;-85
2022/01/27 06:47:51;;;;;;;6.45;3.70;;;6.80;99.90;;;;;;4944513;28;20485;-85
2022/01/27 06:50:17;;;;;;;6.40;4.88;;;6.80;99.90;;;;;;4963897;28;20234;-79
2022/01/27 06:52:42;;;;;;;4.78;3.75;;;6.80;99.90;;;;;;4963382;28;20034;-79
2022/01/27 06:55:09;;;;;;;8.43;5.57;;;6.80;99.90;;;;;;4944836;28;20086;-79
2022/01/27 06:57:35;;;;;;;10.43;5.00;;;6.80;99.90;;;;;;4962332;28;20126;-79
2022/01/27 07:00:01;;;;;;;3.97;3.67;;;6.80;99.90;;;;;;4945533;28;20483;-78
2022/01/27 07:02:27;;;;;;;2.97;2.75;;;6.80;99.90;;;;;;4961679;28;20038;-79
2022/01/27 07:04:52;;;;;;;8.35;4.68;;;6.80;99.90;;;;;;4961732;28;20413;-79
2022/01/27 07:07:18;;;;;;;6.20;5.07;;;6.80;99.90;;;;;;4961315;28;20485;-79
2022/01/27 07:09:43;;;;;;;4.43;3.33;;;6.80;99.90;;;;;;4960617;28;20550;-79
2022/01/27 07:12:10;;;;;;;8.77;5.07;;;6.90;99.90;;;;;;4961204;28;20047;-79
2022/01/27 07:14:35;;;;;;;9.63;3.05;;;6.80;99.90;;;;;;4961088;28;20042;-79
2022/01/27 07:17:02;;;;;;;19.05;5.28;;;6.90;99.90;;;;;;4956278;28;20449;-79
2022/01/27 07:19:27;;;;;;;11.35;5.90;;;6.80;99.90;;;;;;4961523;28;20449;-79
2022/01/27 07:21:53;;;;;;;12.00;5.50;;;6.90;99.90;;;;;;4939338;29;20134;-79
2022/01/27 07:24:18;;;;;;;7.82;3.25;;;6.90;99.90;;;;;;4942556;29;20163;-80
2022/01/27 07:26:44;;;;;;;13.50;4.78;;;6.90;99.90;;;;;;4925590;29;20077;-79
2022/01/27 07:29:10;;;;;;;4.82;3.63;;;6.90;99.90;;;;;;4942176;29;20446;-79
2022/01/27 07:31:35;;;;;;;7.25;3.83;;;6.90;99.90;;;;;;4960088;28;20567;-79
2022/01/27 07:34:01;;;;;;;3.80;3.50;;;7.00;99.90;;;;;;4955367;28;20039;-79
2022/01/27 07:36:28;;;;;;;6.90;2.95;;;7.00;99.90;;;;;;4941391;29;20051;-79
2022/01/27 07:38:53;;;;;;;4.53;3.10;;;7.00;99.90;;;;;;4942700;29;20047;-78
2022/01/27 07:41:19;;;;;;;27.83;3.88;;;7.00;99.90;;;;;;4942426;29;20049;-79
2022/01/27 07:43:45;;;;;;;3.75;2.83;;;7.00;99.90;;;;;;4940814;29;20105;-79
2022/01/27 07:46:11;;;;;;;16.02;2.20;;;7.00;99.90;;;;;;4945957;28;20046;-79
2022/01/27 07:48:38;;;;;;;16.75;4.13;;;7.10;99.90;;;;;;4949230;28;20043;-79
2022/01/27 07:51:06;;;;;;;4.38;3.28;;;7.00;99.90;;;;;;4925680;29;20054;-79
2022/01/27 07:53:31;;;;;;;12.50;3.20;;;7.00;99.90;;;;;;4960172;28;20050;-79
2022/01/27 07:55:57;;;;;;;2.65;2.45;;;7.00;99.90;;;;;;4961328;28;20710;-79
2022/01/27 07:58:22;;;;;;;11.50;3.10;;;7.10;99.90;;;;;;4961666;28;20132;-79
2022/01/27 08:00:48;;;;;;;5.90;2.35;;;7.10;99.90;;;;;;4944058;28;20170;-79
2022/01/27 08:03:13;;;;;;;5.97;4.03;;;7.10;99.90;;;;;;4961196;28;20050;-79
2022/01/27 08:05:39;;;;;;;4.60;2.22;;;7.10;99.90;;;;;;4931168;28;20049;-79
2022/01/27 08:08:05;;;;;;;7.68;3.35;;;7.10;99.90;;;;;;4958929;28;20049;-79
2022/01/27 08:10:37;;;;;;;6.97;4.22;;;7.10;99.90;;;;;;4960744;28;20364;-79
2022/01/27 08:13:04;;;;;;;12.25;2.92;;;7.10;99.90;;;;;;4960825;28;20050;-79
2022/01/27 08:15:30;;;;;;;3.33;3.03;;;7.20;99.90;;;;;;4957991;28;20438;-79
2022/01/27 08:17:55;;;;;;;3.08;2.83;;;7.20;99.90;;;;;;4955170;28;20471;-79
2022/01/27 08:20:21;;;;;;;3.63;2.50;;;7.20;99.90;;;;;;4954436;28;20772;-79
2022/01/27 08:22:49;;;;;;;7.78;4.18;;;7.20;99.90;;;;;;4957794;28;20156;-79
2022/01/27 08:25:15;;;;;;;6.32;2.78;;;7.20;99.90;;;;;;4923733;29;20058;-79
2022/01/27 08:27:44;;;;;;;17.23;2.97;;;7.20;99.90;;;;;;4945216;28;20039;-79
2022/01/27 08:30:11;;;;;;;3.45;2.10;;;7.30;99.90;;;;;;4943387;28;20053;-79
2022/01/27 08:32:57;;;;;;;2.67;2.25;;;7.30;99.90;;;;;;4941248;28;20054;-79
2022/01/27 08:35:22;;;;;;;1.85;1.75;;;7.30;99.90;;;;;;4940425;28;20166;-79
2022/01/27 08:37:48;;;;;;;4.07;2.30;;;7.30;99.90;;;;;;4959320;28;20431;-79
2022/01/27 08:40:15;;;;;;;4.07;2.88;;;7.30;99.90;;;;;;4961260;28;20047;-79
2022/01/27 08:42:42;;;;;;;7.43;3.92;;;7.30;99.90;;;;;;4942350;28;20051;-79
2022/01/27 08:45:14;;;;;;;14.93;4.47;;;7.40;99.90;;;;;;4960319;28;20047;-79
2022/01/27 08:47:40;;;;;;;2.75;2.53;;;7.40;99.90;;;;;;4958619;28;20043;-79
2022/01/27 08:50:07;;;;;;;8.02;2.45;;;7.40;99.90;;;;;;4941587;28;20125;-79
2022/01/27 08:52:34;;;;;;;1.52;1.42;;;7.40;99.90;;;;;;4959812;28;20043;-79
2022/01/27 08:55:00;;;;;;;7.22;1.45;;;7.40;99.90;;;;;;4941448;28;20046;-79
2022/01/27 08:57:25;;;;;;;2.90;2.47;;;7.40;99.90;;;;;;4959693;28;20043;-79
2022/01/27 08:59:53;;;;;;;2.33;2.13;;;7.40;99.90;;;;;;4946786;28;20159;-79
2022/01/27 09:02:19;;;;;;;36.85;3.45;;;7.40;99.90;;;;;;4945779;28;20454;-79
2022/01/27 09:04:44;;;;;;;2.50;2.28;;;7.40;99.90;;;;;;4950620;28;20577;-79
2022/01/27 09:07:10;;;;;;;2.85;1.67;;;7.40;99.90;;;;;;4964088;28;20078;-79
2022/01/27 09:09:36;;;;;;;7.38;2.17;;;7.40;99.90;;;;;;4962300;28;20160;-79
2022/01/27 09:12:02;;;;;;;4.18;2.42;;;7.40;99.90;;;;;;4960244;28;20421;-79
2022/01/27 09:14:30;;;;;;;2.03;1.88;;;7.40;99.90;;;;;;4943852;29;20047;-79
2022/01/27 09:16:57;;;;;;;3.20;2.30;;;7.40;99.90;;;;;;4942874;29;20494;-79
2022/01/27 09:19:25;;;;;;;11.27;4.63;;;7.40;99.90;;;;;;4958274;28;20540;-79
2022/01/27 09:21:53;;;;;;;5.80;3.08;;;7.40;99.90;;;;;;4951321;28;20081;-79
2022/01/27 09:24:26;;;;;;;3.38;3.15;;;7.50;99.90;;;;;;4949897;28;20046;-79
2022/01/27 09:26:53;;;;;;;7.65;2.63;;;7.50;99.90;;;;;;4945858;28;20173;-79
2022/01/27 09:29:21;;;;;;;3.03;2.65;;;7.50;99.90;;;;;;4945512;28;20060;-79
2022/01/27 09:31:48;;;;;;;9.27;2.35;;;7.50;99.90;;;;;;4926045;29;20043;-79
2022/01/27 09:34:14;;;;;;;2.40;2.00;;;7.50;99.90;;;;;;4943667;29;20082;-79
2022/01/27 09:36:40;;;;;;;1.80;1.23;;;7.60;99.90;;;;;;4951984;28;20497;-79
2022/01/27 09:39:05;;;;;;;9.70;2.85;;;7.60;99.90;;;;;;4945067;28;20042;-79
2022/01/27 09:41:36;;;;;;;10.63;1.52;;;7.60;99.90;;;;;;4957582;28;20039;-79
2022/01/27 09:44:02;;;;;;;3.35;2.60;;;7.60;99.90;;;;;;4943043;29;20047;-79
2022/01/27 09:46:28;;;;;;;7.93;3.88;;;7.70;99.90;;;;;;4926564;29;20043;-79
2022/01/27 09:48:54;;;;;;;4.18;2.17;;;7.70;99.90;;;;;;4928811;28;20058;-80
2022/01/27 09:53:46;;;;;;;4.93;2.60;;;7.90;99.90;;;;;;4943215;29;20106;-79
2022/01/27 09:56:12;;;;;;;17.00;2.75;;;7.90;99.90;;;;;;4943859;29;20050;-79
2022/01/27 09:58:38;;;;;;;3.58;1.88;;;7.90;99.90;;;;;;4943270;29;20485;-79
2022/01/27 10:01:04;;;;;;;6.80;2.30;;;8.00;99.90;;;;;;4958615;28;20094;-79
2022/01/27 10:03:30;;;;;;;4.97;3.10;;;8.00;99.90;;;;;;4961149;28;20046;-80
2022/01/27 10:06:12;;;;;;;3.47;2.40;;;8.10;99.90;;;;;;4944269;28;20130;-79
2022/01/27 10:08:40;;;;;;;4.90;2.40;;;8.10;99.90;;;;;;4944146;28;20539;-79
2022/01/27 10:11:17;;;;;;;3.95;2.80;;;8.10;99.90;;;;;;4957129;28;20043;-80
2022/01/27 10:13:45;;;;;;;6.85;2.05;;;8.10;99.90;;;;;;4943780;29;20039;-80
2022/01/27 10:16:34;;;;;;;4.60;2.40;;;8.10;99.90;;;;;;4926486;29;20059;-79
2022/01/27 10:19:08;;;;;;;2.05;1.95;;;8.10;99.90;;;;;;4925250;29;20035;-80
2022/01/27 10:21:35;;;;;;;6.80;1.92;;;8.20;99.90;;;;;;4925099;29;20048;-79
2022/01/27 10:24:26;;;;;;;16.20;2.60;;;8.20;99.90;;;;;;4954554;28;20077;-79
2022/01/27 10:32:47;;;;;;;9.48;2.47;;;8.20;99.90;;;;;;4958600;28;20532;-79
2022/01/27 10:35:15;;;;;;;9.45;1.65;;;8.30;99.90;;;;;;4956702;28;20043;-80
2022/01/27 10:37:54;;;;;;;21.80;1.98;;;8.30;99.90;;;;;;4962067;28;20609;-79
2022/01/27 10:40:38;;;;;;;9.13;1.25;;;8.30;99.90;;;;;;4961365;28;20061;-79
2022/01/27 10:43:15;;;;;;;16.23;2.70;;;8.30;99.90;;;;;;4960865;28;20408;-84
2022/01/27 10:46:29;;;;;;;5.30;2.42;;;8.30;99.90;;;;;;4934791;28;20078;-87
2022/01/27 10:49:01;;;;;;;1.38;1.23;;;8.40;99.90;;;;;;4944865;28;20046;-82
2022/01/27 10:51:41;;;;;;;9.85;1.27;;;8.30;99.90;;;;;;4945343;28;20463;-82
2022/01/27 10:54:16;;;;;;;2.08;1.27;;;8.40;99.90;;;;;;4957187;28;20512;-80
2022/01/27 10:56:42;;;;;;;5.47;2.75;;;8.40;99.90;;;;;;4963394;28;20050;-78
2022/01/27 10:59:15;;;;;;;4.28;2.35;;;8.40;99.90;;;;;;4962384;28;20363;-80
2022/01/27 11:01:51;;;;;;;3.40;1.23;;;8.30;99.90;;;;;;4943603;28;20529;-82
2022/01/27 11:04:19;;;;;;;18.02;1.95;;;8.30;99.90;;;;;;4962747;28;20806;-82
2022/01/27 11:06:58;;;;;;;13.05;3.83;;;8.30;99.90;;;;;;4944984;28;20048;-81
2022/01/27 11:09:25;;;;;;;12.13;2.47;;;8.40;99.90;;;;;;4961875;28;20059;-81
2022/01/27 11:11:56;;;;;;;12.18;2.05;;;8.30;99.90;;;;;;4960909;28;20042;-82
2022/01/27 11:14:25;;;;;;;2.22;1.13;;;8.40;99.90;;;;;;4962105;28;20062;-82
2022/01/27 11:16:54;;;;;;;2.47;2.17;;;8.40;99.90;;;;;;4944122;28;20039;-82
2022/01/27 11:19:36;;;;;;;2.05;1.08;;;8.40;99.90;;;;;;4962252;28;20409;-82
2022/01/27 11:27:28;;;;;;;14.10;1.88;;;8.40;99.90;;;;;;4932426;28;20066;-87
2022/01/27 11:30:04;;;;;;;2.55;1.42;;;8.40;99.90;;;;;;4941435;29;20043;-96
2022/01/27 11:33:10;;;;;;;7.53;1.13;;;8.40;99.90;;;;;;4922116;28;20050;-88
2022/01/27 11:36:29;;;;;;;5.60;2.03;;;8.50;99.90;;;;;;4914288;29;20059;-90
2022/01/27 11:39:01;;;;;;;6.13;1.80;;;8.50;99.90;;;;;;4858288;29;20049;-91
2022/01/27 11:41:51;;;;;;;12.40;2.42;;;8.50;99.90;;;;;;4848721;29;20055;-96
2022/01/27 11:44:23;;;;;;;0.98;0.95;;;8.50;99.90;;;;;;4867561;29;20215;-88
2022/01/27 11:47:13;;;;;;;13.77;1.35;;;8.50;99.90;;;;;;4850892;29;20120;-84
2022/01/27 11:50:06;;;;;;;0.70;0.70;;;8.50;99.90;;;;;;4886707;28;20066;-86
2022/01/27 11:52:52;;;;;;;2.50;1.55;;;8.60;99.90;;;;;;4928466;28;20122;-86
2022/01/27 11:55:24;;;;;;;10.85;1.65;;;8.60;99.90;;;;;;4962208;28;20047;-83
2022/01/27 11:57:55;;;;;;;1.20;1.10;;;8.60;99.90;;;;;;4943946;28;20070;-87
2022/01/27 12:00:30;;;;;;;0.95;0.93;;;8.60;99.90;;;;;;4944299;28;20053;-85
2022/01/27 12:02:56;;;;;;;10.93;2.78;;;8.60;99.90;;;;;;4943311;28;20035;-83
2022/01/27 12:05:25;;;;;;;1.17;1.17;;;8.60;99.90;;;;;;4961904;28;20544;-85
2022/01/27 12:08:09;;;;;;;12.07;1.60;;;8.60;99.90;;;;;;4961110;28;20071;-90
2022/01/27 12:10:42;;;;;;;10.30;1.83;;;8.60;99.90;;;;;;4945521;28;20283;-86
2022/01/27 12:13:27;;;;;;;2.13;1.50;;;8.60;99.90;;;;;;4961846;28;20093;-92
2022/01/27 12:16:12;;;;;;;6.15;1.63;;;8.60;99.90;;;;;;4960752;28;20043;-92
2022/01/27 12:18:38;;;;;;;14.88;2.58;;;8.60;99.90;;;;;;4961338;28;20061;-96
2022/01/27 12:21:35;;;;;;;1.20;0.82;;;8.60;99.90;;;;;;4932545;29;20043;-90
2022/01/27 12:24:21;;;;;;;11.05;2.38;;;8.60;99.90;;;;;;4941223;29;20097;-90
2022/01/27 12:27:07;;;;;;;8.52;1.90;;;8.60;99.90;;;;;;4925057;28;20524;-81
2022/01/27 12:29:42;;;;;;;5.03;1.63;;;8.60;99.90;;;;;;4943514;28;20200;-81
2022/01/27 12:32:22;;;;;;;1.33;1.05;;;8.60;99.90;;;;;;4943264;28;20093;-81
2022/01/27 12:34:59;;;;;;;8.35;1.58;;;8.60;99.90;;;;;;4964662;28;20121;-81
2022/01/27 12:37:43;;;;;;;5.93;2.13;;;8.60;99.90;;;;;;4964796;28;20058;-85
2022/01/27 12:40:20;;;;;;;3.85;2.03;;;8.60;99.90;;;;;;4964720;28;20050;-81
2022/01/27 12:42:59;;;;;;;6.72;1.70;;;8.60;99.90;;;;;;4947448;28;20070;-85
2022/01/27 12:45:28;;;;;;;1.92;0.90;;;8.60;99.90;;;;;;4965712;28;20035;-84
2022/01/27 12:48:00;;;;;;;11.75;1.02;;;8.60;99.90;;;;;;4963498;28;20038;-85
2022/01/27 12:50:27;;;;;;;6.60;2.33;;;8.50;99.90;;;;;;4947694;28;20460;-85
2022/01/27 12:53:02;;;;;;;1.65;1.33;;;8.50;99.90;;;;;;4948331;28;20117;-85
2022/01/27 12:55:36;;;;;;;12.60;1.33;;;8.50;99.90;;;;;;4947909;28;20043;-84
2022/01/27 12:58:09;;;;;;;3.92;1.70;;;8.50;99.90;;;;;;4964882;28;20058;-84
2022/01/27 13:00:42;;;;;;;1.92;1.75;;;8.50;99.90;;;;;;4947846;28;20125;-87
2022/01/27 13:03:08;;;;;;;8.30;1.58;;;8.50;99.90;;;;;;4946714;28;20302;-87
2022/01/27 13:05:35;;;;;;;3.65;0.80;;;8.50;99.90;;;;;;4964639;28;20049;-84
2022/01/27 13:08:04;;;;;;;5.95;1.77;;;8.50;99.90;;;;;;4965017;28;20121;-89
2022/01/27 13:10:29;;;;;;;3.67;1.23;;;8.60;99.90;;;;;;4945501;29;20047;-83
2022/01/27 13:12:57;;;;;;;6.85;2.88;;;8.60;99.90;;;;;;4928281;29;20054;-78
2022/01/27 13:15:26;;;;;;;13.82;2.63;;;8.70;99.90;;;;;;4912452;29;20509;-79
2022/01/27 13:18:05;;;;;;;7.88;2.05;;;8.60;99.90;;;;;;4943948;29;20054;-80
2022/01/27 13:20:37;;;;;;;2.70;1.05;;;8.70;99.90;;;;;;4945312;29;20122;-80
2022/01/27 13:23:26;;;;;;;3.42;1.45;;;8.60;99.90;;;;;;4927014;29;20049;-81
2022/01/27 13:25:57;;;;;;;8.57;1.35;;;8.60;99.90;;;;;;4927478;29;20055;-80
2022/01/27 13:28:28;;;;;;;5.57;1.38;;;8.60;99.90;;;;;;4927914;29;20043;-82
2022/01/27 13:31:04;;;;;;;14.88;1.98;;;8.60;99.90;;;;;;4932842;29;20058;-83
2022/01/27 13:33:36;;;;;;;1.45;0.95;;;8.60;99.90;;;;;;4925566;29;20119;-81
2022/01/27 13:36:01;;;;;;;15.68;3.25;;;8.60;99.90;;;;;;4925716;29;20051;-79
2022/01/27 13:38:37;;;;;;;1.25;1.08;;;8.50;99.90;;;;;;4920927;29;20110;-81
2022/01/27 13:41:25;;;;;;;8.20;0.95;;;8.60;99.90;;;;;;4944833;29;20136;-83
2022/01/27 13:44:11;;;;;;;21.65;2.78;;;8.50;99.90;;;;;;4926835;29;20070;-82
2022/01/27 13:46:57;;;;;;;3.75;1.85;;;8.50;99.90;;;;;;4943653;29;20043;-83
2022/01/27 13:50:21;;;;;;;16.65;2.45;;;8.50;99.90;;;;;;4926253;29;20090;-93
2022/01/27 13:52:56;;;;;;;6.80;1.38;;;8.50;99.90;;;;;;4825754;29;20064;-93
2022/01/27 14:06:52;;;;;;;0.68;0.65;;;8.40;99.90;;;;;;5649595;23;20059;-91